Culberson, North Carolina
Current Conditions -  °F | °C
As of 4:55 AM on Sunday 21 Dec 2014 (Local Time) from KRHP Reporting Station
Haze Haze  
Wind Chill: 42°   Ceiling: 400
Heat Index: 42°   Visibility: 3mi
Dew Point: 42°   Wind: 0mph
Humidity: 100%   Direction: NA
Pressure: 30.18"   Gusts: NA
Location:  34.99°N, 84.17°W
Report Text: KRHP 210955Z AUTO 00000KT 3SM BR OVC004 06/06 A3018 RMK AO2 T00550055
Loading
Personal Weather Stations






























Interactive Weather Map New forecast layout! Learn more

10-Day Weather Forecast

Advertisements
Track Severe Weather on mobile